sensor_id;sensor_type;location;lat;lon;timestamp;temperature;humidity
7341;DHT22;6870;50.944;6.932;2023-04-24T00:00:57;21.30;30.40
7341;DHT22;6870;50.944;6.932;2023-04-24T00:03:28;21.30;29.80
7341;DHT22;6870;50.944;6.932;2023-04-24T00:05:57;21.20;29.50
7341;DHT22;6870;50.944;6.932;2023-04-24T00:08:26;21.20;29.80
7341;DHT22;6870;50.944;6.932;2023-04-24T00:10:54;21.30;29.90
7341;DHT22;6870;50.944;6.932;2023-04-24T00:13:22;21.50;30.00
7341;DHT22;6870;50.944;6.932;2023-04-24T00:15:52;21.10;29.60
7341;DHT22;6870;50.944;6.932;2023-04-24T00:18:20;21.30;30.00
7341;DHT22;6870;50.944;6.932;2023-04-24T00:20:49;21.40;30.00
7341;DHT22;6870;50.944;6.932;2023-04-24T00:23:20;21.40;29.90
7341;DHT22;6870;50.944;6.932;2023-04-24T00:25:48;21.30;29.90
7341;DHT22;6870;50.944;6.932;2023-04-24T00:28:17;21.30;29.80
7341;DHT22;6870;50.944;6.932;2023-04-24T00:30:45;21.40;29.80
7341;DHT22;6870;50.944;6.932;2023-04-24T00:33:15;21.30;29.80
7341;DHT22;6870;50.944;6.932;2023-04-24T00:35:43;21.10;29.80
7341;DHT22;6870;50.944;6.932;2023-04-24T00:38:11;21.10;29.70
7341;DHT22;6870;50.944;6.932;2023-04-24T00:40:40;21.20;29.90
7341;DHT22;6870;50.944;6.932;2023-04-24T00:43:08;21.10;29.90
7341;DHT22;6870;50.944;6.932;2023-04-24T00:45:37;21.40;30.00
7341;DHT22;6870;50.944;6.932;2023-04-24T00:48:05;21.40;30.10
7341;DHT22;6870;50.944;6.932;2023-04-24T00:50:36;21.30;30.20
7341;DHT22;6870;50.944;6.932;2023-04-24T00:53:06;21.30;30.10
7341;DHT22;6870;50.944;6.932;2023-04-24T00:55:34;21.30;29.80
7341;DHT22;6870;50.944;6.932;2023-04-24T00:58:04;21.20;29.80
7341;DHT22;6870;50.944;6.932;2023-04-24T01:00:33;21.20;30.20
7341;DHT22;6870;50.944;6.932;2023-04-24T01:03:04;20.80;29.90
7341;DHT22;6870;50.944;6.932;2023-04-24T01:05:34;21.50;30.40
7341;DHT22;6870;50.944;6.932;2023-04-24T01:08:03;21.20;30.30
7341;DHT22;6870;50.944;6.932;2023-04-24T01:10:35;21.10;30.60
7341;DHT22;6870;50.944;6.932;2023-04-24T01:13:04;21.30;30.50
7341;DHT22;6870;50.944;6.932;2023-04-24T01:15:33;21.30;30.50
7341;DHT22;6870;50.944;6.932;2023-04-24T01:18:01;21.30;30.20
7341;DHT22;6870;50.944;6.932;2023-04-24T01:20:30;21.20;30.50
7341;DHT22;6870;50.944;6.932;2023-04-24T01:23:00;21.40;30.70
7341;DHT22;6870;50.944;6.932;2023-04-24T01:25:29;21.40;31.50
7341;DHT22;6870;50.944;6.932;2023-04-24T01:27:58;20.90;30.40
7341;DHT22;6870;50.944;6.932;2023-04-24T01:30:26;21.30;30.80
7341;DHT22;6870;50.944;6.932;2023-04-24T01:32:55;21.20;30.90
7341;DHT22;6870;50.944;6.932;2023-04-24T01:35:24;21.50;31.10
7341;DHT22;6870;50.944;6.932;2023-04-24T01:37:55;21.10;31.00
7341;DHT22;6870;50.944;6.932;2023-04-24T01:40:25;21.20;31.10
7341;DHT22;6870;50.944;6.932;2023-04-24T01:42:53;20.80;30.70
7341;DHT22;6870;50.944;6.932;2023-04-24T01:45:22;21.30;31.40
7341;DHT22;6870;50.944;6.932;2023-04-24T01:47:50;21.20;31.30
7341;DHT22;6870;50.944;6.932;2023-04-24T01:50:19;21.20;31.50
7341;DHT22;6870;50.944;6.932;2023-04-24T01:52:47;21.30;31.60
7341;DHT22;6870;50.944;6.932;2023-04-24T01:55:16;21.10;31.10
7341;DHT22;6870;50.944;6.932;2023-04-24T01:57:45;21.30;31.20
7341;DHT22;6870;50.944;6.932;2023-04-24T02:00:14;21.20;31.20
7341;DHT22;6870;50.944;6.932;2023-04-24T02:02:43;21.00;31.20
7341;DHT22;6870;50.944;6.932;2023-04-24T02:05:14;21.30;31.40
7341;DHT22;6870;50.944;6.932;2023-04-24T02:07:56;21.10;31.20
7341;DHT22;6870;50.944;6.932;2023-04-24T02:10:24;21.30;32.00
7341;DHT22;6870;50.944;6.932;2023-04-24T02:12:54;21.30;31.50
7341;DHT22;6870;50.944;6.932;2023-04-24T02:15:23;21.10;31.20
7341;DHT22;6870;50.944;6.932;2023-04-24T02:17:51;21.40;31.20
7341;DHT22;6870;50.944;6.932;2023-04-24T02:20:20;21.30;31.00
7341;DHT22;6870;50.944;6.932;2023-04-24T02:22:48;21.20;31.40
7341;DHT22;6870;50.944;6.932;2023-04-24T02:25:17;21.10;31.30
7341;DHT22;6870;50.944;6.932;2023-04-24T02:27:45;21.30;31.50
7341;DHT22;6870;50.944;6.932;2023-04-24T02:30:15;21.00;31.30
7341;DHT22;6870;50.944;6.932;2023-04-24T02:32:43;21.00;31.20
7341;DHT22;6870;50.944;6.932;2023-04-24T02:35:12;21.30;31.60
7341;DHT22;6870;50.944;6.932;2023-04-24T02:37:40;21.10;31.30
7341;DHT22;6870;50.944;6.932;2023-04-24T02:40:09;21.20;31.60
7341;DHT22;6870;50.944;6.932;2023-04-24T02:42:37;21.40;31.70
7341;DHT22;6870;50.944;6.932;2023-04-24T02:45:07;21.20;31.50
7341;DHT22;6870;50.944;6.932;2023-04-24T02:47:37;21.00;31.40
7341;DHT22;6870;50.944;6.932;2023-04-24T02:50:07;21.40;31.80
7341;DHT22;6870;50.944;6.932;2023-04-24T02:52:35;21.10;31.70
7341;DHT22;6870;50.944;6.932;2023-04-24T02:55:04;21.10;31.70
7341;DHT22;6870;50.944;6.932;2023-04-24T02:57:34;21.20;31.80
7341;DHT22;6870;50.944;6.932;2023-04-24T03:00:03;20.90;31.60
7341;DHT22;6870;50.944;6.932;2023-04-24T03:02:34;21.10;32.00
7341;DHT22;6870;50.944;6.932;2023-04-24T03:05:04;21.10;32.00
7341;DHT22;6870;50.944;6.932;2023-04-24T03:07:34;21.20;32.10
7341;DHT22;6870;50.944;6.932;2023-04-24T03:10:04;21.20;32.20
7341;DHT22;6870;50.944;6.932;2023-04-24T03:12:33;21.20;32.00
7341;DHT22;6870;50.944;6.932;2023-04-24T03:15:02;21.20;32.00
7341;DHT22;6870;50.944;6.932;2023-04-24T03:17:30;21.20;31.90
7341;DHT22;6870;50.944;6.932;2023-04-24T03:19:59;21.20;31.50
7341;DHT22;6870;50.944;6.932;2023-04-24T03:22:29;21.20;32.00
7341;DHT22;6870;50.944;6.932;2023-04-24T03:24:59;21.10;31.60
7341;DHT22;6870;50.944;6.932;2023-04-24T03:27:27;21.20;32.00
7341;DHT22;6870;50.944;6.932;2023-04-24T03:29:56;21.00;31.90
7341;DHT22;6870;50.944;6.932;2023-04-24T03:32:24;20.70;31.60
7341;DHT22;6870;50.944;6.932;2023-04-24T03:34:52;20.80;31.80
7341;DHT22;6870;50.944;6.932;2023-04-24T03:37:21;21.20;32.20
7341;DHT22;6870;50.944;6.932;2023-04-24T03:39:50;21.20;32.20
7341;DHT22;6870;50.944;6.932;2023-04-24T03:42:18;21.20;32.10
7341;DHT22;6870;50.944;6.932;2023-04-24T03:44:47;21.20;32.70
7341;DHT22;6870;50.944;6.932;2023-04-24T03:47:15;20.90;31.70
7341;DHT22;6870;50.944;6.932;2023-04-24T03:49:44;21.20;31.90
7341;DHT22;6870;50.944;6.932;2023-04-24T03:52:12;21.10;32.00
7341;DHT22;6870;50.944;6.932;2023-04-24T03:54:40;21.00;32.00
7341;DHT22;6870;50.944;6.932;2023-04-24T03:57:10;20.60;31.50
7341;DHT22;6870;50.944;6.932;2023-04-24T03:59:38;21.10;32.00
7341;DHT22;6870;50.944;6.932;2023-04-24T04:02:08;21.20;32.30
7341;DHT22;6870;50.944;6.932;2023-04-24T04:04:36;20.60;31.50
7341;DHT22;6870;50.944;6.932;2023-04-24T04:07:05;21.20;32.20
7341;DHT22;6870;50.944;6.932;2023-04-24T04:09:35;21.00;31.90
7341;DHT22;6870;50.944;6.932;2023-04-24T04:12:03;21.00;31.90
7341;DHT22;6870;50.944;6.932;2023-04-24T04:14:33;20.90;31.80
7341;DHT22;6870;50.944;6.932;2023-04-24T04:17:01;20.90;31.70
7341;DHT22;6870;50.944;6.932;2023-04-24T04:19:30;21.10;32.00
7341;DHT22;6870;50.944;6.932;2023-04-24T04:21:58;21.10;31.90
7341;DHT22;6870;50.944;6.932;2023-04-24T04:24:26;20.70;31.60
7341;DHT22;6870;50.944;6.932;2023-04-24T04:26:55;21.10;32.30
7341;DHT22;6870;50.944;6.932;2023-04-24T04:29:24;21.00;32.10
7341;DHT22;6870;50.944;6.932;2023-04-24T04:31:54;20.90;31.90
7341;DHT22;6870;50.944;6.932;2023-04-24T04:34:22;20.80;31.90
7341;DHT22;6870;50.944;6.932;2023-04-24T04:36:51;20.70;31.50
7341;DHT22;6870;50.944;6.932;2023-04-24T04:39:19;20.90;32.10
7341;DHT22;6870;50.944;6.932;2023-04-24T04:41:48;21.30;32.30
7341;DHT22;6870;50.944;6.932;2023-04-24T04:44:17;20.80;32.00
7341;DHT22;6870;50.944;6.932;2023-04-24T04:46:45;21.20;32.20
7341;DHT22;6870;50.944;6.932;2023-04-24T04:49:15;21.20;32.30
7341;DHT22;6870;50.944;6.932;2023-04-24T04:51:43;21.10;32.40
7341;DHT22;6870;50.944;6.932;2023-04-24T04:54:12;21.10;32.10
7341;DHT22;6870;50.944;6.932;2023-04-24T04:56:40;21.30;32.60
7341;DHT22;6870;50.944;6.932;2023-04-24T04:59:09;21.00;32.10
7341;DHT22;6870;50.944;6.932;2023-04-24T05:01:39;20.60;31.80
7341;DHT22;6870;50.944;6.932;2023-04-24T05:04:08;21.20;32.40
7341;DHT22;6870;50.944;6.932;2023-04-24T05:06:38;21.20;32.60
7341;DHT22;6870;50.944;6.932;2023-04-24T05:09:06;21.20;32.90
7341;DHT22;6870;50.944;6.932;2023-04-24T05:11:34;20.80;32.40
7341;DHT22;6870;50.944;6.932;2023-04-24T05:14:03;21.10;32.70
7341;DHT22;6870;50.944;6.932;2023-04-24T05:16:31;20.90;33.40
7341;DHT22;6870;50.944;6.932;2023-04-24T05:18:59;21.20;33.00
7341;DHT22;6870;50.944;6.932;2023-04-24T05:21:28;21.10;32.80
7341;DHT22;6870;50.944;6.932;2023-04-24T05:23:59;20.90;32.70
7341;DHT22;6870;50.944;6.932;2023-04-24T05:26:27;21.00;32.50
7341;DHT22;6870;50.944;6.932;2023-04-24T05:28:55;21.20;32.90
7341;DHT22;6870;50.944;6.932;2023-04-24T05:31:24;21.10;32.60
7341;DHT22;6870;50.944;6.932;2023-04-24T05:33:52;21.10;32.80
7341;DHT22;6870;50.944;6.932;2023-04-24T05:36:21;20.80;32.50
7341;DHT22;6870;50.944;6.932;2023-04-24T05:38:49;20.70;32.70
7341;DHT22;6870;50.944;6.932;2023-04-24T05:41:19;21.30;33.00
7341;DHT22;6870;50.944;6.932;2023-04-24T05:43:48;20.70;32.50
7341;DHT22;6870;50.944;6.932;2023-04-24T05:46:16;21.00;32.80
7341;DHT22;6870;50.944;6.932;2023-04-24T05:48:45;21.30;33.00
7341;DHT22;6870;50.944;6.932;2023-04-24T05:51:13;20.80;32.60
7341;DHT22;6870;50.944;6.932;2023-04-24T05:53:41;21.10;32.90
7341;DHT22;6870;50.944;6.932;2023-04-24T05:56:09;21.20;33.20
7341;DHT22;6870;50.944;6.932;2023-04-24T05:58:39;21.20;33.20
7341;DHT22;6870;50.944;6.932;2023-04-24T06:01:08;21.10;32.90
7341;DHT22;6870;50.944;6.932;2023-04-24T06:03:36;20.70;31.70
7341;DHT22;6870;50.944;6.932;2023-04-24T06:06:06;20.70;30.10
7341;DHT22;6870;50.944;6.932;2023-04-24T06:08:35;20.30;28.50
7341;DHT22;6870;50.944;6.932;2023-04-24T06:11:03;20.10;27.90
7341;DHT22;6870;50.944;6.932;2023-04-24T06:13:32;19.90;26.50
7341;DHT22;6870;50.944;6.932;2023-04-24T06:16:02;19.90;26.80
7341;DHT22;6870;50.944;6.932;2023-04-24T06:18:30;20.20;27.90
7341;DHT22;6870;50.944;6.932;2023-04-24T06:20:58;20.00;26.00
7341;DHT22;6870;50.944;6.932;2023-04-24T06:23:27;19.80;26.90
7341;DHT22;6870;50.944;6.932;2023-04-24T06:25:56;20.30;27.30
7341;DHT22;6870;50.944;6.932;2023-04-24T06:28:24;20.40;26.90
7341;DHT22;6870;50.944;6.932;2023-04-24T06:30:53;20.50;26.80
7341;DHT22;6870;50.944;6.932;2023-04-24T06:33:22;20.70;27.00
7341;DHT22;6870;50.944;6.932;2023-04-24T06:35:51;20.70;27.00
7341;DHT22;6870;50.944;6.932;2023-04-24T06:38:20;20.90;27.10
7341;DHT22;6870;50.944;6.932;2023-04-24T06:41:06;20.70;27.00
7341;DHT22;6870;50.944;6.932;2023-04-24T06:43:35;20.60;27.10
7341;DHT22;6870;50.944;6.932;2023-04-24T06:46:03;20.80;28.00
7341;DHT22;6870;50.944;6.932;2023-04-24T06:48:33;20.50;27.20
7341;DHT22;6870;50.944;6.932;2023-04-24T06:51:01;20.50;27.30
7341;DHT22;6870;50.944;6.932;2023-04-24T06:53:33;20.40;27.40
7341;DHT22;6870;50.944;6.932;2023-04-24T06:56:02;20.50;27.60
7341;DHT22;6870;50.944;6.932;2023-04-24T06:58:30;20.80;27.80
7341;DHT22;6870;50.944;6.932;2023-04-24T07:00:59;20.80;27.20
7341;DHT22;6870;50.944;6.932;2023-04-24T07:03:36;20.60;27.70
7341;DHT22;6870;50.944;6.932;2023-04-24T07:06:05;20.60;27.70
7341;DHT22;6870;50.944;6.932;2023-04-24T07:08:34;20.80;27.90
7341;DHT22;6870;50.944;6.932;2023-04-24T07:11:03;21.00;28.10
7341;DHT22;6870;50.944;6.932;2023-04-24T07:13:32;20.50;27.80
7341;DHT22;6870;50.944;6.932;2023-04-24T07:16:02;20.60;28.00
7341;DHT22;6870;50.944;6.932;2023-04-24T07:18:31;20.60;28.00
7341;DHT22;6870;50.944;6.932;2023-04-24T07:21:10;20.80;28.30
7341;DHT22;6870;50.944;6.932;2023-04-24T07:23:38;21.10;28.40
7341;DHT22;6870;50.944;6.932;2023-04-24T07:26:08;20.80;28.30
7341;DHT22;6870;50.944;6.932;2023-04-24T07:28:36;20.70;28.20
7341;DHT22;6870;50.944;6.932;2023-04-24T07:31:05;20.70;28.20
7341;DHT22;6870;50.944;6.932;2023-04-24T07:33:33;20.50;28.00
7341;DHT22;6870;50.944;6.932;2023-04-24T07:36:05;20.60;28.10
7341;DHT22;6870;50.944;6.932;2023-04-24T07:38:33;21.10;27.90
7341;DHT22;6870;50.944;6.932;2023-04-24T07:41:02;21.10;28.50
7341;DHT22;6870;50.944;6.932;2023-04-24T07:43:30;20.70;28.20
7341;DHT22;6870;50.944;6.932;2023-04-24T07:45:59;20.80;27.90
7341;DHT22;6870;50.944;6.932;2023-04-24T07:48:49;20.80;28.10
7341;DHT22;6870;50.944;6.932;2023-04-24T07:51:39;20.50;28.10
7341;DHT22;6870;50.944;6.932;2023-04-24T07:54:08;20.40;28.10
7341;DHT22;6870;50.944;6.932;2023-04-24T07:56:37;20.30;28.00
7341;DHT22;6870;50.944;6.932;2023-04-24T07:59:06;20.40;29.40
7341;DHT22;6870;50.944;6.932;2023-04-24T08:01:34;20.10;30.00
7341;DHT22;6870;50.944;6.932;2023-04-24T08:04:03;19.70;30.00
7341;DHT22;6870;50.944;6.932;2023-04-24T08:06:32;19.70;30.70
7341;DHT22;6870;50.944;6.932;2023-04-24T08:09:03;19.80;30.90
7341;DHT22;6870;50.944;6.932;2023-04-24T08:11:31;19.70;31.00
7341;DHT22;6870;50.944;6.932;2023-04-24T08:14:00;19.60;30.90
7341;DHT22;6870;50.944;6.932;2023-04-24T08:16:29;19.90;31.30
7341;DHT22;6870;50.944;6.932;2023-04-24T08:19:06;19.50;31.40
7341;DHT22;6870;50.944;6.932;2023-04-24T08:21:35;19.70;31.60
7341;DHT22;6870;50.944;6.932;2023-04-24T08:24:05;20.00;31.80
7341;DHT22;6870;50.944;6.932;2023-04-24T08:26:35;19.70;32.00
7341;DHT22;6870;50.944;6.932;2023-04-24T08:29:04;19.70;31.90
7341;DHT22;6870;50.944;6.932;2023-04-24T08:31:33;19.90;32.40
7341;DHT22;6870;50.944;6.932;2023-04-24T08:34:02;19.70;32.10
7341;DHT22;6870;50.944;6.932;2023-04-24T08:36:30;19.70;32.00
7341;DHT22;6870;50.944;6.932;2023-04-24T08:39:14;19.90;32.30
7341;DHT22;6870;50.944;6.932;2023-04-24T08:41:44;20.10;32.20
7341;DHT22;6870;50.944;6.932;2023-04-24T08:44:13;19.80;32.40
7341;DHT22;6870;50.944;6.932;2023-04-24T08:46:43;19.60;32.00
7341;DHT22;6870;50.944;6.932;2023-04-24T08:49:15;19.80;32.50
7341;DHT22;6870;50.944;6.932;2023-04-24T08:51:44;19.80;32.10
7341;DHT22;6870;50.944;6.932;2023-04-24T08:54:16;20.00;32.70
7341;DHT22;6870;50.944;6.932;2023-04-24T08:56:48;19.70;32.10
7341;DHT22;6870;50.944;6.932;2023-04-24T08:59:17;19.90;32.50
7341;DHT22;6870;50.944;6.932;2023-04-24T09:01:46;20.10;32.90
7341;DHT22;6870;50.944;6.932;2023-04-24T09:04:17;19.80;32.50
7341;DHT22;6870;50.944;6.932;2023-04-24T09:06:48;19.90;32.70
7341;DHT22;6870;50.944;6.932;2023-04-24T09:09:18;20.20;33.00
7341;DHT22;6870;50.944;6.932;2023-04-24T09:11:46;20.10;33.00
7341;DHT22;6870;50.944;6.932;2023-04-24T09:14:17;20.20;32.70
7341;DHT22;6870;50.944;6.932;2023-04-24T09:16:46;20.10;32.80
7341;DHT22;6870;50.944;6.932;2023-04-24T09:19:14;20.20;32.60
7341;DHT22;6870;50.944;6.932;2023-04-24T09:21:45;20.20;32.90
7341;DHT22;6870;50.944;6.932;2023-04-24T09:24:20;20.50;33.10
7341;DHT22;6870;50.944;6.932;2023-04-24T09:26:56;20.20;32.90
7341;DHT22;6870;50.944;6.932;2023-04-24T09:29:25;20.40;33.10
7341;DHT22;6870;50.944;6.932;2023-04-24T09:31:53;20.40;32.80
7341;DHT22;6870;50.944;6.932;2023-04-24T09:34:26;20.20;32.90
7341;DHT22;6870;50.944;6.932;2023-04-24T09:36:55;20.30;33.00
7341;DHT22;6870;50.944;6.932;2023-04-24T09:39:24;20.40;32.80
7341;DHT22;6870;50.944;6.932;2023-04-24T09:41:54;20.30;32.90
7341;DHT22;6870;50.944;6.932;2023-04-24T09:44:26;20.40;33.10
7341;DHT22;6870;50.944;6.932;2023-04-24T09:46:59;20.40;33.00
7341;DHT22;6870;50.944;6.932;2023-04-24T09:49:29;20.60;33.10
7341;DHT22;6870;50.944;6.932;2023-04-24T09:52:09;20.40;32.80
7341;DHT22;6870;50.944;6.932;2023-04-24T09:54:40;20.60;32.90
7341;DHT22;6870;50.944;6.932;2023-04-24T09:57:08;20.70;32.50
7341;DHT22;6870;50.944;6.932;2023-04-24T09:59:42;20.50;32.20
7341;DHT22;6870;50.944;6.932;2023-04-24T10:02:17;20.90;32.50
7341;DHT22;6870;50.944;6.932;2023-04-24T10:04:54;20.90;32.30
7341;DHT22;6870;50.944;6.932;2023-04-24T10:07:25;21.20;32.20
7341;DHT22;6870;50.944;6.932;2023-04-24T10:09:55;21.20;32.20
7341;DHT22;6870;50.944;6.932;2023-04-24T10:12:24;21.00;32.00
7341;DHT22;6870;50.944;6.932;2023-04-24T10:14:53;21.20;32.10
7341;DHT22;6870;50.944;6.932;2023-04-24T10:17:22;21.00;31.80
7341;DHT22;6870;50.944;6.932;2023-04-24T10:19:52;20.80;31.20
7341;DHT22;6870;50.944;6.932;2023-04-24T10:22:21;21.40;31.60
7341;DHT22;6870;50.944;6.932;2023-04-24T10:24:51;21.30;31.20
7341;DHT22;6870;50.944;6.932;2023-04-24T10:27:21;21.30;31.20
7341;DHT22;6870;50.944;6.932;2023-04-24T10:29:53;21.10;31.00
7341;DHT22;6870;50.944;6.932;2023-04-24T10:32:30;21.10;31.30
7341;DHT22;6870;50.944;6.932;2023-04-24T10:34:58;21.40;31.40
7341;DHT22;6870;50.944;6.932;2023-04-24T10:37:27;21.30;30.90
7341;DHT22;6870;50.944;6.932;2023-04-24T10:39:55;21.60;31.10
7341;DHT22;6870;50.944;6.932;2023-04-24T10:42:27;21.50;30.90
7341;DHT22;6870;50.944;6.932;2023-04-24T10:44:55;21.40;30.10
7341;DHT22;6870;50.944;6.932;2023-04-24T10:47:25;21.50;30.00
7341;DHT22;6870;50.944;6.932;2023-04-24T10:49:53;21.40;29.90
7341;DHT22;6870;50.944;6.932;2023-04-24T10:52:21;21.30;30.00
7341;DHT22;6870;50.944;6.932;2023-04-24T10:54:50;21.50;30.00
7341;DHT22;6870;50.944;6.932;2023-04-24T10:57:29;21.40;29.30
7341;DHT22;6870;50.944;6.932;2023-04-24T11:00:14;21.40;29.30
7341;DHT22;6870;50.944;6.932;2023-04-24T11:02:46;21.60;29.70
7341;DHT22;6870;50.944;6.932;2023-04-24T11:05:20;21.50;29.20
7341;DHT22;6870;50.944;6.932;2023-04-24T11:08:11;21.60;29.30
7341;DHT22;6870;50.944;6.932;2023-04-24T11:10:41;21.70;29.20
7341;DHT22;6870;50.944;6.932;2023-04-24T11:13:15;21.70;29.50
7341;DHT22;6870;50.944;6.932;2023-04-24T11:15:44;21.50;29.80
7341;DHT22;6870;50.944;6.932;2023-04-24T11:18:37;21.50;29.80
7341;DHT22;6870;50.944;6.932;2023-04-24T11:21:12;21.40;29.40
7341;DHT22;6870;50.944;6.932;2023-04-24T11:23:40;21.40;29.20
7341;DHT22;6870;50.944;6.932;2023-04-24T11:26:12;21.50;29.10
7341;DHT22;6870;50.944;6.932;2023-04-24T11:28:46;21.80;29.20
7341;DHT22;6870;50.944;6.932;2023-04-24T11:31:36;21.90;29.00
7341;DHT22;6870;50.944;6.932;2023-04-24T11:34:07;21.80;28.70
7341;DHT22;6870;50.944;6.932;2023-04-24T11:36:37;21.50;28.70
7341;DHT22;6870;50.944;6.932;2023-04-24T11:39:05;21.30;28.60
7341;DHT22;6870;50.944;6.932;2023-04-24T11:41:34;21.40;28.80
7341;DHT22;6870;50.944;6.932;2023-04-24T11:44:07;21.50;28.80
7341;DHT22;6870;50.944;6.932;2023-04-24T11:46:36;21.90;28.90
7341;DHT22;6870;50.944;6.932;2023-04-24T11:49:07;21.80;28.60
7341;DHT22;6870;50.944;6.932;2023-04-24T11:51:35;22.10;28.70
7341;DHT22;6870;50.944;6.932;2023-04-24T11:54:19;22.10;28.40
7341;DHT22;6870;50.944;6.932;2023-04-24T11:56:47;22.60;28.40
7341;DHT22;6870;50.944;6.932;2023-04-24T11:59:17;22.00;27.80
7341;DHT22;6870;50.944;6.932;2023-04-24T12:01:45;22.40;28.00
7341;DHT22;6870;50.944;6.932;2023-04-24T12:04:14;22.50;27.90
7341;DHT22;6870;50.944;6.932;2023-04-24T12:06:58;22.70;28.10
7341;DHT22;6870;50.944;6.932;2023-04-24T12:09:27;22.50;27.90
7341;DHT22;6870;50.944;6.932;2023-04-24T12:11:56;22.60;27.70
7341;DHT22;6870;50.944;6.932;2023-04-24T12:14:25;22.60;27.80
7341;DHT22;6870;50.944;6.932;2023-04-24T12:16:53;22.50;27.70
7341;DHT22;6870;50.944;6.932;2023-04-24T12:19:23;22.60;27.50
7341;DHT22;6870;50.944;6.932;2023-04-24T12:22:01;22.60;27.80
7341;DHT22;6870;50.944;6.932;2023-04-24T12:24:30;22.70;27.80
7341;DHT22;6870;50.944;6.932;2023-04-24T12:26:59;22.30;27.80
7341;DHT22;6870;50.944;6.932;2023-04-24T12:29:29;22.50;28.10
7341;DHT22;6870;50.944;6.932;2023-04-24T12:31:57;22.40;28.20
7341;DHT22;6870;50.944;6.932;2023-04-24T12:34:25;22.50;28.60
7341;DHT22;6870;50.944;6.932;2023-04-24T12:36:54;22.10;28.30
7341;DHT22;6870;50.944;6.932;2023-04-24T12:39:22;22.50;28.40
7341;DHT22;6870;50.944;6.932;2023-04-24T12:41:56;22.70;28.10
7341;DHT22;6870;50.944;6.932;2023-04-24T12:44:30;22.70;28.10
7341;DHT22;6870;50.944;6.932;2023-04-24T12:47:01;22.80;27.70
7341;DHT22;6870;50.944;6.932;2023-04-24T12:49:30;22.70;27.50
7341;DHT22;6870;50.944;6.932;2023-04-24T12:51:58;22.90;27.50
7341;DHT22;6870;50.944;6.932;2023-04-24T12:54:32;22.60;27.20
7341;DHT22;6870;50.944;6.932;2023-04-24T12:57:00;22.90;27.40
7341;DHT22;6870;50.944;6.932;2023-04-24T12:59:30;22.70;27.40
7341;DHT22;6870;50.944;6.932;2023-04-24T13:01:58;22.60;27.30
7341;DHT22;6870;50.944;6.932;2023-04-24T13:04:26;22.60;27.30
7341;DHT22;6870;50.944;6.932;2023-04-24T13:06:54;22.70;27.20
7341;DHT22;6870;50.944;6.932;2023-04-24T13:09:22;22.60;27.00
7341;DHT22;6870;50.944;6.932;2023-04-24T13:11:50;23.00;27.10
7341;DHT22;6870;50.944;6.932;2023-04-24T13:14:18;22.40;27.30
7341;DHT22;6870;50.944;6.932;2023-04-24T13:16:48;22.70;27.00
7341;DHT22;6870;50.944;6.932;2023-04-24T13:19:17;23.10;26.90
7341;DHT22;6870;50.944;6.932;2023-04-24T13:21:45;23.10;26.70
7341;DHT22;6870;50.944;6.932;2023-04-24T13:24:13;23.10;26.80
7341;DHT22;6870;50.944;6.932;2023-04-24T13:26:42;23.00;26.80
7341;DHT22;6870;50.944;6.932;2023-04-24T13:29:10;23.00;26.90
7341;DHT22;6870;50.944;6.932;2023-04-24T13:31:38;22.80;26.80
7341;DHT22;6870;50.944;6.932;2023-04-24T13:34:08;23.10;27.40
7341;DHT22;6870;50.944;6.932;2023-04-24T13:36:36;23.20;27.50
7341;DHT22;6870;50.944;6.932;2023-04-24T13:39:05;23.40;26.80
7341;DHT22;6870;50.944;6.932;2023-04-24T13:41:33;23.00;25.50
7341;DHT22;6870;50.944;6.932;2023-04-24T13:44:02;23.30;26.00
7341;DHT22;6870;50.944;6.932;2023-04-24T13:46:30;23.40;26.20
7341;DHT22;6870;50.944;6.932;2023-04-24T13:48:58;23.30;26.00
7341;DHT22;6870;50.944;6.932;2023-04-24T13:51:28;23.10;25.90
7341;DHT22;6870;50.944;6.932;2023-04-24T13:53:56;22.80;26.00
7341;DHT22;6870;50.944;6.932;2023-04-24T13:56:24;23.30;26.60
7341;DHT22;6870;50.944;6.932;2023-04-24T13:58:52;22.70;26.10
7341;DHT22;6870;50.944;6.932;2023-04-24T14:01:21;22.80;26.20
7341;DHT22;6870;50.944;6.932;2023-04-24T14:03:51;22.80;26.20
7341;DHT22;6870;50.944;6.932;2023-04-24T14:06:19;22.70;26.20
7341;DHT22;6870;50.944;6.932;2023-04-24T14:08:49;22.80;26.40
7341;DHT22;6870;50.944;6.932;2023-04-24T14:11:18;23.20;26.40
7341;DHT22;6870;50.944;6.932;2023-04-24T14:13:46;23.50;26.40
7341;DHT22;6870;50.944;6.932;2023-04-24T14:16:15;23.40;25.70
7341;DHT22;6870;50.944;6.932;2023-04-24T14:18:43;23.40;26.00
7341;DHT22;6870;50.944;6.932;2023-04-24T14:21:11;23.90;25.50
7341;DHT22;6870;50.944;6.932;2023-04-24T14:23:39;23.90;26.60
7341;DHT22;6870;50.944;6.932;2023-04-24T14:26:08;23.90;25.50
7341;DHT22;6870;50.944;6.932;2023-04-24T14:28:36;23.90;25.60
7341;DHT22;6870;50.944;6.932;2023-04-24T14:31:05;23.80;25.50
7341;DHT22;6870;50.944;6.932;2023-04-24T14:33:33;23.70;26.20
7341;DHT22;6870;50.944;6.932;2023-04-24T14:36:01;23.30;25.60
7341;DHT22;6870;50.944;6.932;2023-04-24T14:38:31;23.60;25.60
7341;DHT22;6870;50.944;6.932;2023-04-24T14:40:59;23.70;25.10
7341;DHT22;6870;50.944;6.932;2023-04-24T14:43:35;24.10;25.70
7341;DHT22;6870;50.944;6.932;2023-04-24T14:46:03;24.00;25.60
7341;DHT22;6870;50.944;6.932;2023-04-24T14:48:32;23.70;25.50
7341;DHT22;6870;50.944;6.932;2023-04-24T14:51:00;24.10;26.00
7341;DHT22;6870;50.944;6.932;2023-04-24T14:53:28;24.00;25.40
7341;DHT22;6870;50.944;6.932;2023-04-24T14:55:56;23.80;25.70
7341;DHT22;6870;50.944;6.932;2023-04-24T14:58:24;24.00;25.60
7341;DHT22;6870;50.944;6.932;2023-04-24T15:00:53;24.20;25.10
7341;DHT22;6870;50.944;6.932;2023-04-24T15:03:21;24.30;25.10
7341;DHT22;6870;50.944;6.932;2023-04-24T15:05:50;24.10;24.30
7341;DHT22;6870;50.944;6.932;2023-04-24T15:08:19;24.50;22.10
7341;DHT22;6870;50.944;6.932;2023-04-24T15:10:47;23.30;18.60
7341;DHT22;6870;50.944;6.932;2023-04-24T15:13:15;22.70;17.10
7341;DHT22;6870;50.944;6.932;2023-04-24T15:15:45;22.30;17.40
7341;DHT22;6870;50.944;6.932;2023-04-24T15:18:15;21.70;16.70
7341;DHT22;6870;50.944;6.932;2023-04-24T15:20:43;21.50;17.20
7341;DHT22;6870;50.944;6.932;2023-04-24T15:23:11;21.50;17.20
7341;DHT22;6870;50.944;6.932;2023-04-24T15:25:39;21.60;16.70
7341;DHT22;6870;50.944;6.932;2023-04-24T15:28:07;21.30;16.70
7341;DHT22;6870;50.944;6.932;2023-04-24T15:30:36;21.50;17.00
7341;DHT22;6870;50.944;6.932;2023-04-24T15:33:04;21.30;16.70
7341;DHT22;6870;50.944;6.932;2023-04-24T15:35:33;21.20;17.10
7341;DHT22;6870;50.944;6.932;2023-04-24T15:38:01;20.80;16.40
7341;DHT22;6870;50.944;6.932;2023-04-24T15:40:30;21.00;16.50
7341;DHT22;6870;50.944;6.932;2023-04-24T15:42:58;21.00;17.10
7341;DHT22;6870;50.944;6.932;2023-04-24T15:45:26;20.60;16.60
7341;DHT22;6870;50.944;6.932;2023-04-24T15:47:55;20.70;17.00
7341;DHT22;6870;50.944;6.932;2023-04-24T15:50:23;20.70;17.00
7341;DHT22;6870;50.944;6.932;2023-04-24T15:52:53;21.40;17.40
7341;DHT22;6870;50.944;6.932;2023-04-24T15:55:21;21.70;16.60
7341;DHT22;6870;50.944;6.932;2023-04-24T15:57:49;22.50;17.60
7341;DHT22;6870;50.944;6.932;2023-04-24T16:00:17;22.70;17.60
7341;DHT22;6870;50.944;6.932;2023-04-24T16:02:46;22.80;17.80
7341;DHT22;6870;50.944;6.932;2023-04-24T16:05:16;22.70;17.80
7341;DHT22;6870;50.944;6.932;2023-04-24T16:07:45;22.70;18.10
7341;DHT22;6870;50.944;6.932;2023-04-24T16:10:15;22.80;18.50
7341;DHT22;6870;50.944;6.932;2023-04-24T16:12:43;22.60;18.60
7341;DHT22;6870;50.944;6.932;2023-04-24T16:15:11;22.70;18.50
7341;DHT22;6870;50.944;6.932;2023-04-24T16:17:39;23.00;19.10